Time;durP1;ratioP1;P1;durP2;ratioP2;P2;SDS_P1;SDS_P2;PMS_P1;PMS_P2;Temp;Humidity;BMP_temperature;BMP_pressure;BME280_temperature;BME280_humidity;BME280_pressure;Samples;Min_cycle;Max_cycle;Signal;HPM_P1;HPM_P2
2022/09/14 00:02:25;;;;;;;;;;;11.10;99.90;;;;;;5109265;28;19928;-58
2022/09/14 00:04:53;;;;;;;;;;;11.10;99.90;;;;;;5107584;28;19924;-58
2022/09/14 00:07:20;;;;;;;;;;;11.00;99.90;;;;;;5091134;28;19931;-58
2022/09/14 00:09:49;;;;;;;;;;;11.00;99.90;;;;;;5108695;28;19924;-57
2022/09/14 00:12:17;;;;;;;;;;;11.00;99.90;;;;;;5102251;28;19931;-58
2022/09/14 00:14:45;;;;;;;;;;;11.00;99.90;;;;;;5108916;28;19924;-58
2022/09/14 00:17:12;;;;;;;;;;;10.90;99.90;;;;;;5108894;28;19924;-58
2022/09/14 00:19:40;;;;;;;;;;;10.90;99.90;;;;;;5090727;28;20009;-57
2022/09/14 00:22:07;;;;;;;;;;;10.90;99.90;;;;;;5110625;27;20322;-57
2022/09/14 00:24:35;;;;;;;;;;;10.90;99.90;;;;;;5111798;28;19930;-58
2022/09/14 00:27:02;;;;;;;;;;;10.80;99.90;;;;;;5105317;28;19924;-59
2022/09/14 00:29:30;;;;;;;;;;;10.80;99.90;;;;;;5109483;28;19990;-56
2022/09/14 00:31:57;;;;;;;;;;;10.80;99.90;;;;;;5109603;28;19931;-57
2022/09/14 00:34:26;;;;;;;;;;;10.70;99.90;;;;;;5107581;28;19923;-57
2022/09/14 00:36:53;;;;;;;;;;;10.70;99.90;;;;;;5090895;28;19924;-58
2022/09/14 00:39:22;;;;;;;;;;;10.70;99.90;;;;;;5108816;28;19951;-57
2022/09/14 00:41:57;;;;;;;;;;;10.70;99.90;;;;;;5089348;28;19950;-58
2022/09/14 00:44:27;;;;;;;;;;;10.60;99.90;;;;;;5108576;28;19923;-58
2022/09/14 00:46:59;;;;;;;;;;;10.60;99.90;;;;;;5110773;28;20036;-58
2022/09/14 00:49:31;;;;;;;;;;;10.60;99.90;;;;;;5128485;27;19942;-58
2022/09/14 00:52:02;;;;;;;;;;;10.50;99.90;;;;;;5133030;27;19947;-58
2022/09/14 00:54:30;;;;;;;;;;;10.50;99.90;;;;;;5110976;27;19931;-58
2022/09/14 00:57:00;;;;;;;;;;;10.50;99.90;;;;;;5107711;27;19924;-58
2022/09/14 00:59:28;;;;;;;;;;;10.40;99.90;;;;;;5092071;28;19924;-58
2022/09/14 01:01:56;;;;;;;;;;;10.40;99.90;;;;;;5090621;28;20387;-58
2022/09/14 01:04:23;;;;;;;;;;;10.40;99.90;;;;;;5120093;27;19923;-58
2022/09/14 01:07:16;;;;;;;;;;;10.40;99.90;;;;;;5112520;27;19927;-58
2022/09/14 01:10:01;;;;;;;;;;;10.30;99.90;;;;;;5130316;27;19923;-58
2022/09/14 01:12:35;;;;;;;;;;;10.30;99.90;;;;;;5102677;28;20403;-58
2022/09/14 01:15:08;;;;;;;;;;;10.30;99.90;;;;;;5092026;28;19931;-58
2022/09/14 01:17:56;;;;;;;;;;;10.30;99.90;;;;;;5092015;28;20295;-58
2022/09/14 01:20:35;;;;;;;;;;;10.10;99.90;;;;;;5092024;28;19931;-58
2022/09/14 01:23:08;;;;;;;;;;;10.20;99.90;;;;;;5104954;27;19933;-58
2022/09/14 01:25:54;;;;;;;;;;;10.20;99.90;;;;;;5120756;27;19923;-57
2022/09/14 01:28:25;;;;;;;;;;;10.20;99.90;;;;;;5099509;27;20409;-59
2022/09/14 01:30:54;;;;;;;;;;;10.10;99.90;;;;;;5123448;27;19927;-58
2022/09/14 01:33:27;;;;;;;;;;;10.10;99.90;;;;;;5094910;28;19924;-58
2022/09/14 01:35:55;;;;;;;;;;;10.10;99.90;;;;;;5094791;28;20295;-58
2022/09/14 01:38:28;;;;;;;;;;;10.10;99.90;;;;;;5107583;27;19924;-58
2022/09/14 01:40:56;;;;;;;;;;;10.10;99.90;;;;;;5118541;27;19931;-58
2022/09/14 01:43:29;;;;;;;;;;;10.10;99.90;;;;;;5115249;28;19924;-57
2022/09/14 01:46:00;;;;;;;;;;;10.00;99.90;;;;;;5095896;28;19923;-57
2022/09/14 01:48:33;;;;;;;;;;;10.00;99.90;;;;;;5115189;28;20382;-58
2022/09/14 01:51:04;;;;;;;;;;;10.00;99.90;;;;;;5114843;28;19924;-58
2022/09/14 01:53:34;;;;;;;;;;;9.90;99.90;;;;;;5115142;28;19931;-57
2022/09/14 01:56:07;;;;;;;;;;;9.90;99.90;;;;;;5115094;28;19924;-58
2022/09/14 01:58:35;;;;;;;;;;;9.90;99.90;;;;;;5113868;28;19930;-57
2022/09/14 02:01:03;;;;;;;;;;;9.90;99.90;;;;;;5114890;28;19924;-57
2022/09/14 02:03:36;;;;;;;;;;;9.90;99.90;;;;;;5114879;28;19924;-57
2022/09/14 02:06:06;;;;;;;;;;;9.80;99.90;;;;;;5114664;28;19924;-58
2022/09/14 02:08:34;;;;;;;;;;;9.80;99.90;;;;;;5114750;28;19924;-57
2022/09/14 02:11:01;;;;;;;;;;;9.80;99.90;;;;;;5114891;28;19931;-57
2022/09/14 02:13:29;;;;;;;;;;;9.70;99.90;;;;;;5113761;28;20302;-57
2022/09/14 02:15:56;;;;;;;;;;;9.70;99.90;;;;;;5114523;28;19931;-57
2022/09/14 02:18:24;;;;;;;;;;;9.70;99.90;;;;;;5114603;28;20370;-58
2022/09/14 02:20:54;;;;;;;;;;;9.60;99.90;;;;;;5096546;28;19931;-57
2022/09/14 02:23:22;;;;;;;;;;;9.60;99.90;;;;;;5114515;28;19931;-58
2022/09/14 02:25:49;;;;;;;;;;;9.60;99.90;;;;;;5114397;28;19924;-57
2022/09/14 02:28:19;;;;;;;;;;;9.60;99.90;;;;;;5114426;28;19924;-58
2022/09/14 02:31:02;;;;;;;;;;;9.50;99.90;;;;;;5114455;28;19924;-58
2022/09/14 02:33:55;;;;;;;;;;;9.50;99.90;;;;;;5096427;28;19934;-57
2022/09/14 02:36:29;;;;;;;;;;;9.50;99.90;;;;;;5114338;28;19928;-57
2022/09/14 02:38:59;;;;;;;;;;;9.50;99.90;;;;;;5114377;28;19932;-57
2022/09/14 02:41:27;;;;;;;;;;;9.50;99.90;;;;;;5114159;28;19924;-57
2022/09/14 02:44:00;;;;;;;;;;;9.40;99.90;;;;;;5114289;28;19947;-57
2022/09/14 02:46:33;;;;;;;;;;;9.40;99.90;;;;;;5114232;28;19924;-57
2022/09/14 02:49:00;;;;;;;;;;;9.30;99.90;;;;;;5114224;28;20355;-57
2022/09/14 02:51:46;;;;;;;;;;;9.30;99.90;;;;;;5114017;28;19923;-57
2022/09/14 02:54:16;;;;;;;;;;;9.20;99.90;;;;;;5114026;28;19923;-57
2022/09/14 02:56:43;;;;;;;;;;;9.20;99.90;;;;;;5113943;28;19924;-56
2022/09/14 02:59:11;;;;;;;;;;;9.20;99.90;;;;;;5112973;28;20512;-57
2022/09/14 03:01:39;;;;;;;;;;;9.10;99.90;;;;;;5114343;28;19923;-56
2022/09/14 03:04:06;;;;;;;;;;;9.20;99.90;;;;;;5114304;28;19924;-56
2022/09/14 03:06:34;;;;;;;;;;;9.10;99.90;;;;;;5113778;28;19924;-57
2022/09/14 03:09:02;;;;;;;;;;;9.10;99.90;;;;;;5113533;28;19935;-57
2022/09/14 03:11:29;;;;;;;;;;;9.10;99.90;;;;;;5112670;28;19931;-58
2022/09/14 03:13:57;;;;;;;;;;;9.10;99.90;;;;;;5113664;28;19943;-58
2022/09/14 03:16:24;;;;;;;;;;;9.10;99.90;;;;;;5113409;28;19924;-58
2022/09/14 03:18:52;;;;;;;;;;;9.00;99.90;;;;;;5113335;28;19924;-58
2022/09/14 03:21:19;;;;;;;;;;;9.10;99.90;;;;;;5095293;28;20411;-58
2022/09/14 03:23:48;;;;;;;;;;;9.00;99.90;;;;;;5113359;28;19931;-58
2022/09/14 03:26:19;;;;;;;;;;;9.00;99.90;;;;;;5112412;28;20394;-58
2022/09/14 03:28:53;;;;;;;;;;;9.00;99.90;;;;;;5112199;28;20512;-58
2022/09/14 03:31:21;;;;;;;;;;;9.00;99.90;;;;;;5113347;28;19924;-58
2022/09/14 03:33:53;;;;;;;;;;;9.00;99.90;;;;;;5113264;28;19924;-57
2022/09/14 03:36:21;;;;;;;;;;;8.90;99.90;;;;;;5113363;28;19924;-58
2022/09/14 03:38:50;;;;;;;;;;;9.00;99.90;;;;;;5112188;28;20382;-57
2022/09/14 03:41:17;;;;;;;;;;;9.00;99.90;;;;;;5112891;28;19924;-58
2022/09/14 03:43:45;;;;;;;;;;;9.00;99.90;;;;;;5113285;28;19931;-58
2022/09/14 03:46:14;;;;;;;;;;;9.00;99.90;;;;;;5113021;28;19924;-58
2022/09/14 03:48:42;;;;;;;;;;;9.10;99.90;;;;;;5112984;28;19925;-58
2022/09/14 03:51:11;;;;;;;;;;;9.10;99.90;;;;;;5112823;28;20402;-58
2022/09/14 03:53:38;;;;;;;;;;;9.20;99.90;;;;;;5112822;28;19930;-58
2022/09/14 03:56:32;;;;;;;;;;;9.20;99.90;;;;;;5095022;28;19924;-58
2022/09/14 03:58:59;;;;;;;;;;;9.30;99.90;;;;;;5108529;28;19924;-58
2022/09/14 04:01:27;;;;;;;;;;;9.40;99.90;;;;;;5112506;28;19931;-57
2022/09/14 04:03:54;;;;;;;;;;;9.50;99.90;;;;;;5112799;28;19930;-58
2022/09/14 04:06:21;;;;;;;;;;;9.50;99.90;;;;;;5112777;28;19924;-58
2022/09/14 04:08:49;;;;;;;;;;;9.60;99.90;;;;;;5112642;28;20314;-58
2022/09/14 04:11:18;;;;;;;;;;;9.60;99.90;;;;;;5112186;28;19930;-58
2022/09/14 04:13:45;;;;;;;;;;;9.70;99.90;;;;;;5112486;28;20446;-58
2022/09/14 04:16:13;;;;;;;;;;;9.70;99.90;;;;;;5112654;28;19924;-58
2022/09/14 04:18:41;;;;;;;;;;;9.70;99.90;;;;;;5112043;28;19924;-58
2022/09/14 04:21:13;;;;;;;;;;;9.80;99.90;;;;;;5112311;28;19923;-58
2022/09/14 04:23:40;;;;;;;;;;;9.80;99.90;;;;;;5112124;28;19923;-58
2022/09/14 04:26:28;;;;;;;;;;;9.90;99.90;;;;;;5094377;28;19924;-58
2022/09/14 04:28:56;;;;;;;;;;;9.90;99.90;;;;;;5112444;28;19931;-61
2022/09/14 04:31:24;;;;;;;;;;;9.90;99.90;;;;;;5094165;28;19931;-58
2022/09/14 04:33:53;;;;;;;;;;;10.00;99.90;;;;;;5112262;28;19928;-58
2022/09/14 04:36:22;;;;;;;;;;;10.00;99.90;;;;;;5111504;28;20306;-58
2022/09/14 04:38:51;;;;;;;;;;;10.00;99.90;;;;;;5093920;28;19931;-56
2022/09/14 04:41:20;;;;;;;;;;;10.10;99.90;;;;;;5112386;28;20303;-57
2022/09/14 04:43:49;;;;;;;;;;;10.10;99.90;;;;;;5112235;28;19931;-58
2022/09/14 04:46:41;;;;;;;;;;;10.10;99.90;;;;;;5093227;28;19928;-57
2022/09/14 04:49:15;;;;;;;;;;;10.20;99.90;;;;;;5102477;28;19946;-58
2022/09/14 04:51:43;;;;;;;;;;;10.20;99.90;;;;;;5109014;28;20367;-57
2022/09/14 04:54:12;;;;;;;;;;;10.20;99.90;;;;;;5108983;28;19946;-57
2022/09/14 04:56:40;;;;;;;;;;;10.20;99.90;;;;;;5109020;28;19931;-58
2022/09/14 04:59:07;;;;;;;;;;;10.20;99.90;;;;;;5126094;28;19946;-57
2022/09/14 05:01:36;;;;;;;;;;;10.30;99.90;;;;;;5108959;28;19934;-59
2022/09/14 05:04:04;;;;;;;;;;;10.20;99.90;;;;;;5084565;28;19928;-57
2022/09/14 05:06:36;;;;;;;;;;;10.30;99.90;;;;;;5085058;28;20275;-57
2022/09/14 05:09:05;;;;;;;;;;;10.30;99.90;;;;;;5104341;28;19924;-57
2022/09/14 05:11:33;;;;;;;;;;;10.30;99.90;;;;;;5106780;28;19928;-57
2022/09/14 05:14:01;;;;;;;;;;;10.40;99.90;;;;;;5105787;28;19928;-58
2022/09/14 05:16:30;;;;;;;;;;;10.40;99.90;;;;;;5106277;28;20401;-57
2022/09/14 05:19:00;;;;;;;;;;;10.40;99.90;;;;;;5094388;28;19924;-57
2022/09/14 05:21:28;;;;;;;;;;;10.50;99.90;;;;;;5094165;28;19924;-57
2022/09/14 05:23:57;;;;;;;;;;;10.50;99.90;;;;;;5108422;28;19931;-57
2022/09/14 05:26:26;;;;;;;;;;;10.50;99.90;;;;;;5090263;28;19928;-57
2022/09/14 05:28:54;;;;;;;;;;;10.50;99.90;;;;;;5108510;28;19935;-57
2022/09/14 05:31:25;;;;;;;;;;;10.60;99.90;;;;;;5106778;28;19927;-57
2022/09/14 05:33:53;;;;;;;;;;;10.60;99.90;;;;;;5088237;28;19935;-58
2022/09/14 05:36:21;;;;;;;;;;;10.60;99.90;;;;;;5110179;28;19934;-58
2022/09/14 05:38:49;;;;;;;;;;;10.60;99.90;;;;;;5112080;28;19924;-58
2022/09/14 05:41:16;;;;;;;;;;;10.60;99.90;;;;;;5110848;28;20406;-58
2022/09/14 05:43:44;;;;;;;;;;;10.60;99.90;;;;;;5109695;27;19928;-58
2022/09/14 05:46:15;;;;;;;;;;;10.60;99.90;;;;;;5109028;28;19942;-57
2022/09/14 05:48:43;;;;;;;;;;;10.70;99.90;;;;;;5099453;28;19943;-58
2022/09/14 05:51:15;;;;;;;;;;;10.70;99.90;;;;;;5091673;28;19928;-58
2022/09/14 05:53:46;;;;;;;;;;;10.70;99.90;;;;;;5116978;27;19935;-57
2022/09/14 05:56:14;;;;;;;;;;;10.80;99.90;;;;;;5132184;27;19923;-57
2022/09/14 05:58:42;;;;;;;;;;;10.70;99.90;;;;;;5118335;27;19928;-58
2022/09/14 06:01:12;;;;;;;;;;;10.70;99.90;;;;;;5100252;28;19924;-57
2022/09/14 06:03:40;;;;;;;;;;;10.80;99.90;;;;;;5093961;28;19931;-58
2022/09/14 06:06:08;;;;;;;;;;;10.80;99.90;;;;;;5107709;28;19924;-58
2022/09/14 06:08:36;;;;;;;;;;;10.80;99.90;;;;;;5088789;27;19939;-58
2022/09/14 06:11:04;;;;;;;;;;;10.80;99.90;;;;;;5131937;27;19923;-58
2022/09/14 06:13:32;;;;;;;;;;;10.90;99.90;;;;;;5120958;27;19924;-58
2022/09/14 06:16:03;;;;;;;;;;;10.90;99.90;;;;;;5108261;28;19928;-58
2022/09/14 06:18:32;;;;;;;;;;;10.90;99.90;;;;;;5088094;28;19942;-58
2022/09/14 06:20:59;;;;;;;;;;;11.00;99.90;;;;;;5083416;28;19925;-57
2022/09/14 06:23:27;;;;;;;;;;;11.00;99.90;;;;;;5083788;28;19928;-58
2022/09/14 06:25:55;;;;;;;;;;;11.00;99.90;;;;;;5090834;28;19935;-57
2022/09/14 06:28:25;;;;;;;;;;;11.10;99.90;;;;;;5090581;28;20367;-59
2022/09/14 06:30:53;;;;;;;;;;;11.10;99.90;;;;;;5090712;28;19924;-58
2022/09/14 06:33:20;;;;;;;;;;;11.10;99.90;;;;;;5096860;28;19931;-58
2022/09/14 06:35:53;;;;;;;;;;;11.20;99.90;;;;;;5103672;28;19925;-58
2022/09/14 06:38:21;;;;;;;;;;;11.20;99.90;;;;;;5080792;28;20288;-58
2022/09/14 06:40:55;;;;;;;;;;;11.20;99.90;;;;;;5090508;28;19928;-58
2022/09/14 06:43:24;;;;;;;;;;;11.30;99.90;;;;;;5096897;28;20329;-58
2022/09/14 06:46:00;;;;;;;;;;;11.40;99.90;;;;;;5110743;28;19950;-58
2022/09/14 06:48:28;;;;;;;;;;;11.40;99.90;;;;;;5099210;28;19924;-58
2022/09/14 06:50:56;;;;;;;;;;;11.50;99.90;;;;;;5082915;28;20317;-58
2022/09/14 06:53:26;;;;;;;;;;;11.60;99.90;;;;;;5078590;28;19931;-58
2022/09/14 06:55:57;;;;;;;;;;;11.70;99.90;;;;;;5079977;28;19946;-58
2022/09/14 06:58:24;;;;;;;;;;;11.70;99.90;;;;;;5072644;28;19931;-58
2022/09/14 07:00:51;;;;;;;;;;;11.80;99.90;;;;;;5075487;28;20358;-58
2022/09/14 07:03:19;;;;;;;;;;;11.90;99.90;;;;;;5072117;28;19935;-57
2022/09/14 07:05:46;;;;;;;;;;;12.00;99.90;;;;;;5085853;28;19928;-58
2022/09/14 07:08:13;;;;;;;;;;;12.20;99.90;;;;;;5073973;28;19925;-58
2022/09/14 07:10:42;;;;;;;;;;;12.30;99.90;;;;;;5068141;28;20070;-58
2022/09/14 07:13:10;;;;;;;;;;;12.40;99.90;;;;;;5081172;28;19931;-58
2022/09/14 07:15:37;;;;;;;;;;;12.50;99.90;;;;;;5073284;28;20380;-58
2022/09/14 07:18:05;;;;;;;;;;;12.50;99.90;;;;;;5082573;28;20390;-58
2022/09/14 07:20:32;;;;;;;;;;;12.70;99.90;;;;;;5103978;28;19932;-58
2022/09/14 07:23:00;;;;;;;;;;;12.70;99.90;;;;;;5095289;27;19931;-58
2022/09/14 07:25:27;;;;;;;;;;;12.80;99.90;;;;;;5109877;28;19924;-58
2022/09/14 07:27:55;;;;;;;;;;;12.90;99.90;;;;;;5100241;28;20291;-58
2022/09/14 07:30:23;;;;;;;;;;;13.00;99.90;;;;;;5099105;28;19943;-59
2022/09/14 07:32:51;;;;;;;;;;;13.00;99.90;;;;;;5093739;27;19927;-58
2022/09/14 07:35:19;;;;;;;;;;;13.10;99.90;;;;;;5091768;28;19928;-59
2022/09/14 07:37:46;;;;;;;;;;;13.20;99.90;;;;;;5098702;28;19924;-59
2022/09/14 07:40:13;;;;;;;;;;;13.20;99.90;;;;;;5109833;28;19942;-59
2022/09/14 07:42:41;;;;;;;;;;;13.30;99.90;;;;;;5110334;27;19924;-58
2022/09/14 07:45:08;;;;;;;;;;;13.30;99.90;;;;;;5109638;28;19924;-59
2022/09/14 07:47:36;;;;;;;;;;;13.40;99.90;;;;;;5091778;28;19930;-59
2022/09/14 07:50:03;;;;;;;;;;;13.50;99.90;;;;;;5109565;28;19930;-58
2022/09/14 07:52:31;;;;;;;;;;;13.50;99.90;;;;;;5101351;28;19935;-58
2022/09/14 07:55:05;;;;;;;;;;;13.60;99.90;;;;;;5074398;28;19924;-58
2022/09/14 07:57:32;;;;;;;;;;;13.70;99.90;;;;;;5108586;28;20317;-59
2022/09/14 08:00:20;;;;;;;;;;;13.70;99.90;;;;;;5109638;28;19942;-59
2022/09/14 08:02:51;;;;;;;;;;;13.90;99.90;;;;;;5110184;27;19931;-58
2022/09/14 08:05:19;;;;;;;;;;;13.90;99.90;;;;;;5110051;28;19924;-58
2022/09/14 08:07:46;;;;;;;;;;;13.90;99.90;;;;;;5101107;28;19924;-59
2022/09/14 08:10:14;;;;;;;;;;;14.00;99.90;;;;;;5109366;28;19931;-59
2022/09/14 08:12:41;;;;;;;;;;;14.10;99.90;;;;;;5109943;28;20298;-58
2022/09/14 08:15:09;;;;;;;;;;;14.10;99.90;;;;;;5109218;28;19931;-59
2022/09/14 08:17:37;;;;;;;;;;;14.20;99.90;;;;;;5108612;28;19923;-60
2022/09/14 08:20:04;;;;;;;;;;;14.30;99.90;;;;;;5107835;28;20378;-60
2022/09/14 08:22:32;;;;;;;;;;;14.40;99.90;;;;;;5102587;28;19923;-58
2022/09/14 08:24:59;;;;;;;;;;;14.50;99.90;;;;;;5128989;27;19931;-59
2022/09/14 08:27:27;;;;;;;;;;;14.50;99.90;;;;;;5124314;27;19924;-60
2022/09/14 08:29:54;;;;;;;;;;;14.60;99.90;;;;;;5088615;28;19928;-59
2022/09/14 08:32:21;;;;;;;;;;;14.70;99.90;;;;;;5088779;28;19935;-59
2022/09/14 08:34:50;;;;;;;;;;;14.70;99.90;;;;;;5125806;28;20216;-59
2022/09/14 08:37:18;;;;;;;;;;;14.70;99.90;;;;;;5099692;28;19924;-59
2022/09/14 08:39:45;;;;;;;;;;;14.80;99.90;;;;;;5109133;28;19935;-59
2022/09/14 08:42:19;;;;;;;;;;;14.80;99.90;;;;;;5109071;28;19924;-58
2022/09/14 08:44:51;;;;;;;;;;;14.80;99.90;;;;;;5108869;28;20363;-59
2022/09/14 08:47:31;;;;;;;;;;;14.80;99.90;;;;;;5109461;28;19935;-58
2022/09/14 08:50:01;;;;;;;;;;;14.90;99.90;;;;;;5108952;28;19924;-59
2022/09/14 08:52:36;;;;;;;;;;;15.00;99.90;;;;;;5104105;28;19935;-58
2022/09/14 08:55:22;;;;;;;;;;;15.00;99.90;;;;;;5108597;28;19934;-59
2022/09/14 08:58:08;;;;;;;;;;;15.10;99.90;;;;;;5107605;28;19923;-60
2022/09/14 09:00:41;;;;;;;;;;;15.20;99.90;;;;;;5108964;28;19928;-59
2022/09/14 09:03:11;;;;;;;;;;;15.20;99.90;;;;;;5108309;28;19923;-59
2022/09/14 09:05:43;;;;;;;;;;;15.20;99.90;;;;;;5108386;28;19934;-60
2022/09/14 09:08:10;;;;;;;;;;;15.30;99.90;;;;;;5103240;28;19927;-59
2022/09/14 09:10:40;;;;;;;;;;;15.30;99.90;;;;;;5112823;28;19947;-59
2022/09/14 09:13:11;;;;;;;;;;;15.30;99.90;;;;;;5113550;27;19924;-59
2022/09/14 09:15:47;;;;;;;;;;;15.40;99.90;;;;;;5112552;28;19936;-59
2022/09/14 09:18:25;;;;;;;;;;;15.50;99.90;;;;;;5094267;28;19938;-59
2022/09/14 09:21:08;;;;;;;;;;;15.40;99.90;;;;;;5112457;28;19924;-59
2022/09/14 09:23:36;;;;;;;;;;;15.50;99.90;;;;;;5112681;27;19934;-58
2022/09/14 09:26:15;;;;;;;;;;;15.60;99.90;;;;;;5109360;28;19927;-61
2022/09/14 09:28:48;;;;;;;;;;;15.60;99.90;;;;;;5090661;28;19923;-59
2022/09/14 09:31:16;;;;;;;;;;;15.60;99.90;;;;;;5112553;28;20191;-59
2022/09/14 09:34:03;;;;;;;;;;;15.60;99.90;;;;;;5094679;28;19934;-59
2022/09/14 09:36:35;;;;;;;;;;;15.60;99.90;;;;;;5093876;28;19923;-58
2022/09/14 09:39:03;;;;;;;;;;;15.60;99.90;;;;;;5105875;27;19992;-60
2022/09/14 09:41:49;;;;;;;;;;;15.60;99.90;;;;;;5114337;27;19938;-59
2022/09/14 09:44:17;;;;;;;;;;;15.60;99.90;;;;;;5118532;27;19928;-58
2022/09/14 09:46:44;;;;;;;;;;;15.60;99.90;;;;;;5112108;28;19924;-58
2022/09/14 09:49:20;;;;;;;;;;;15.60;99.90;;;;;;5111487;28;19928;-58
2022/09/14 09:51:48;;;;;;;;;;;15.60;99.90;;;;;;5111330;28;19924;-58
2022/09/14 09:54:23;;;;;;;;;;;15.70;99.90;;;;;;5097645;28;19932;-58
2022/09/14 09:56:51;;;;;;;;;;;15.70;99.90;;;;;;5111962;28;19928;-59
2022/09/14 09:59:21;;;;;;;;;;;15.70;99.90;;;;;;5111503;28;19923;-59
2022/09/14 10:01:49;;;;;;;;;;;15.80;99.90;;;;;;5111916;28;20275;-58
2022/09/14 10:04:21;;;;;;;;;;;15.80;99.90;;;;;;5111439;27;19953;-58
2022/09/14 10:06:50;;;;;;;;;;;15.80;99.90;;;;;;5111050;28;20366;-57
2022/09/14 10:09:18;;;;;;;;;;;15.80;99.90;;;;;;5109471;28;19935;-59
2022/09/14 10:11:56;;;;;;;;;;;15.80;99.90;;;;;;5111642;28;19927;-59
2022/09/14 10:14:31;;;;;;;;;;;15.80;99.90;;;;;;5110733;27;20413;-61
2022/09/14 10:17:19;;;;;;;;;;;15.80;99.90;;;;;;5093135;28;20432;-58
2022/09/14 10:19:47;;;;;;;;;;;15.80;99.90;;;;;;5110744;28;19924;-58
2022/09/14 10:22:28;;;;;;;;;;;15.80;99.90;;;;;;5110536;27;19931;-58
2022/09/14 10:24:58;;;;;;;;;;;15.80;99.90;;;;;;5110169;28;19924;-58
2022/09/14 10:27:39;;;;;;;;;;;15.80;99.90;;;;;;5110929;28;20379;-58
2022/09/14 10:30:12;;;;;;;;;;;15.80;99.90;;;;;;5111456;28;19931;-58
2022/09/14 10:32:41;;;;;;;;;;;15.80;99.90;;;;;;5111023;27;20298;-58
2022/09/14 10:35:14;;;;;;;;;;;15.80;99.90;;;;;;5091255;28;19924;-59
2022/09/14 10:37:49;;;;;;;;;;;15.80;99.90;;;;;;5091491;28;19931;-58
2022/09/14 10:40:24;;;;;;;;;;;15.80;99.90;;;;;;5090469;28;19924;-59
2022/09/14 10:43:10;;;;;;;;;;;15.80;99.90;;;;;;5093080;27;19931;-59
2022/09/14 10:45:40;;;;;;;;;;;15.80;99.90;;;;;;5110977;28;19931;-59
2022/09/14 10:48:19;;;;;;;;;;;15.90;99.90;;;;;;5110619;28;19931;-58
2022/09/14 10:51:01;;;;;;;;;;;15.90;99.90;;;;;;5111085;28;20303;-61
2022/09/14 10:53:36;;;;;;;;;;;15.90;99.90;;;;;;5109947;27;20425;-59
2022/09/14 10:56:14;;;;;;;;;;;16.00;99.90;;;;;;5110106;28;20394;-58
2022/09/14 10:58:57;;;;;;;;;;;16.00;99.90;;;;;;5110269;28;19923;-59
2022/09/14 11:01:24;;;;;;;;;;;16.00;99.90;;;;;;5110669;28;19935;-59
2022/09/14 11:03:51;;;;;;;;;;;16.10;99.90;;;;;;5111042;28;20375;-59
2022/09/14 11:06:28;;;;;;;;;;;16.20;99.90;;;;;;5110247;28;19931;-58
2022/09/14 11:09:01;;;;;;;;;;;16.20;99.90;;;;;;5088278;28;20005;-59
2022/09/14 11:11:28;;;;;;;;;;;16.30;99.90;;;;;;5090111;28;19924;-59
2022/09/14 11:14:05;;;;;;;;;;;16.30;99.90;;;;;;5100778;28;20054;-60
2022/09/14 11:16:32;;;;;;;;;;;16.40;99.90;;;;;;5091643;28;19955;-58
2022/09/14 11:19:14;;;;;;;;;;;16.50;99.90;;;;;;5109807;28;19931;-58
2022/09/14 11:22:05;;;;;;;;;;;16.50;99.90;;;;;;5110385;28;19923;-59
2022/09/14 11:24:49;;;;;;;;;;;16.50;99.90;;;;;;5114438;27;19928;-59
2022/09/14 11:27:25;;;;;;;;;;;16.60;99.90;;;;;;5129623;27;20281;-59
2022/09/14 11:29:58;;;;;;;;;;;16.70;99.90;;;;;;5109551;28;20477;-58
2022/09/14 11:32:29;;;;;;;;;;;16.80;99.90;;;;;;5109311;28;20303;-58
2022/09/14 11:35:02;;;;;;;;;;;16.80;99.90;;;;;;5110140;27;19928;-58
2022/09/14 11:37:33;;;;;;;;;;;16.90;99.90;;;;;;5109774;28;20336;-58
2022/09/14 11:40:09;;;;;;;;;;;16.90;99.90;;;;;;5089927;28;19924;-58
2022/09/14 11:42:42;;;;;;;;;;;16.90;99.90;;;;;;5089373;28;19931;-58
2022/09/14 11:45:30;;;;;;;;;;;16.90;99.90;;;;;;5130028;27;19923;-58
2022/09/14 11:48:20;;;;;;;;;;;17.00;99.90;;;;;;5105167;28;19923;-58
2022/09/14 11:51:14;;;;;;;;;;;17.30;99.90;;;;;;5109458;28;19927;-58
2022/09/14 11:53:42;;;;;;;;;;;17.50;99.90;;;;;;5114643;27;19924;-59
2022/09/14 11:56:22;;;;;;;;;;;17.70;99.90;;;;;;5109762;28;19924;-59
2022/09/14 11:58:49;;;;;;;;;;;17.80;99.90;;;;;;5090480;28;20310;-59
2022/09/14 12:01:25;;;;;;;;;;;18.00;99.90;;;;;;5091315;28;19928;-59
2022/09/14 12:04:03;;;;;;;;;;;18.10;99.90;;;;;;5119254;27;20487;-59
2022/09/14 12:06:34;;;;;;;;;;;18.20;99.90;;;;;;5129381;27;20416;-59
2022/09/14 12:09:19;;;;;;;;;;;18.30;99.90;;;;;;5103894;27;20482;-59
2022/09/14 12:11:47;;;;;;;;;;;18.30;99.90;;;;;;5054185;28;19944;-59
2022/09/14 12:14:26;;;;;;;;;;;18.50;99.90;;;;;;5103320;27;19927;-59
2022/09/14 12:17:13;;;;;;;;;;;18.80;99.90;;;;;;5111598;27;19923;-59
2022/09/14 12:20:24;;;;;;;;;;;19.10;99.90;;;;;;5086244;28;19924;-59
2022/09/14 12:23:02;;;;;;;;;;;19.20;99.90;;;;;;5079508;28;20432;-59
2022/09/14 12:25:30;;;;;;;;;;;19.20;99.90;;;;;;5086600;28;20490;-59
2022/09/14 12:27:57;;;;;;;;;;;19.10;99.90;;;;;;5094817;28;19927;-59
2022/09/14 12:30:54;;;;;;;;;;;19.10;99.90;;;;;;5109113;28;19924;-59
2022/09/14 12:33:31;;;;;;;;;;;19.00;99.90;;;;;;5090884;28;19924;-59
2022/09/14 12:36:01;;;;;;;;;;;19.30;99.90;;;;;;5108774;28;19929;-59
2022/09/14 12:38:32;;;;;;;;;;;19.90;99.90;;;;;;5111116;28;19931;-59
2022/09/14 12:41:00;;;;;;;;;;;20.50;99.90;;;;;;5088637;28;19924;-59
2022/09/14 12:43:33;;;;;;;;;;;21.20;99.90;;;;;;5103302;27;19927;-59
2022/09/14 12:46:03;;;;;;;;;;;21.70;99.90;;;;;;5133589;27;19930;-59
2022/09/14 12:48:43;;;;;;;;;;;21.70;99.90;;;;;;5120214;27;19924;-58
2022/09/14 12:51:14;;;;;;;;;;;21.40;99.90;;;;;;5109866;28;19924;-59
2022/09/14 12:53:42;;;;;;;;;;;21.10;99.90;;;;;;5116574;27;19923;-59
2022/09/14 12:56:17;;;;;;;;;;;21.00;99.90;;;;;;5113175;28;19927;-59
2022/09/14 12:58:52;;;;;;;;;;;21.00;99.90;;;;;;5113030;27;20315;-59
2022/09/14 13:01:24;;;;;;;;;;;21.20;99.90;;;;;;5095166;28;20294;-59
2022/09/14 13:03:53;;;;;;;;;;;21.60;99.90;;;;;;5113165;27;19924;-59
2022/09/14 13:06:21;;;;;;;;;;;21.70;99.90;;;;;;5112155;28;20382;-59
2022/09/14 13:08:51;;;;;;;;;;;21.70;99.90;;;;;;5097468;28;19924;-60
2022/09/14 13:11:39;;;;;;;;;;;21.90;99.90;;;;;;5092118;28;19931;-60
2022/09/14 13:14:14;;;;;;;;;;;22.00;99.90;;;;;;5103625;28;19928;-59
2022/09/14 13:16:43;;;;;;;;;;;21.90;99.90;;;;;;5112778;28;19924;-61
2022/09/14 13:19:19;;;;;;;;;;;21.60;99.90;;;;;;5112021;28;19923;-60
2022/09/14 13:21:48;;;;;;;;;;;21.50;99.90;;;;;;5112604;28;19928;-60
2022/09/14 13:24:41;;;;;;;;;;;21.20;99.90;;;;;;5097443;28;20707;-60
2022/09/14 13:27:20;;;;;;;;;;;21.20;99.90;;;;;;5089332;28;20092;-60
2022/09/14 13:29:55;;;;;;;;;;;21.00;99.90;;;;;;5091683;28;20417;-60
2022/09/14 13:32:23;;;;;;;;;;;21.00;99.90;;;;;;5091072;28;19931;-60
2022/09/14 13:34:51;;;;;;;;;;;21.00;99.90;;;;;;5109436;27;19924;-60
2022/09/14 13:37:19;;;;;;;;;;;21.00;99.90;;;;;;5112230;28;19931;-59
2022/09/14 13:39:49;;;;;;;;;;;20.80;99.90;;;;;;5100529;28;19931;-59
2022/09/14 13:42:17;;;;;;;;;;;20.50;99.90;;;;;;5091590;28;19931;-60
2022/09/14 13:44:45;;;;;;;;;;;20.40;99.90;;;;;;5108281;27;19924;-59
2022/09/14 13:47:14;;;;;;;;;;;20.40;99.90;;;;;;5112234;28;19924;-60
2022/09/14 13:49:42;;;;;;;;;;;20.50;99.90;;;;;;5091618;28;19947;-60
2022/09/14 13:52:22;;;;;;;;;;;20.60;99.90;;;;;;5095296;27;20295;-61
2022/09/14 13:55:10;;;;;;;;;;;20.40;99.90;;;;;;5097577;27;20376;-59
2022/09/14 13:57:38;;;;;;;;;;;20.40;99.90;;;;;;5094545;28;19935;-60
2022/09/14 14:00:08;;;;;;;;;;;20.30;99.90;;;;;;5111041;28;19928;-59
2022/09/14 14:02:36;;;;;;;;;;;20.30;99.90;;;;;;5111655;28;19928;-60
2022/09/14 14:05:04;;;;;;;;;;;20.10;99.90;;;;;;5111988;27;19924;-60
2022/09/14 14:07:33;;;;;;;;;;;19.90;99.90;;;;;;5127146;27;19923;-60
2022/09/14 14:10:02;;;;;;;;;;;19.70;99.90;;;;;;5096345;28;19931;-60
2022/09/14 14:12:31;;;;;;;;;;;19.70;99.90;;;;;;5071607;28;19998;-60
2022/09/14 14:15:24;;;;;;;;;;;19.60;99.90;;;;;;5109068;27;19927;-59
2022/09/14 14:17:52;;;;;;;;;;;19.60;99.90;;;;;;5125260;27;20487;-60
2022/09/14 14:20:22;;;;;;;;;;;19.50;99.90;;;;;;5109623;28;20525;-59
2022/09/14 14:22:55;;;;;;;;;;;19.40;99.90;;;;;;5118402;27;19923;-60
2022/09/14 14:25:39;;;;;;;;;;;19.30;99.90;;;;;;5091266;28;20436;-60
2022/09/14 14:28:21;;;;;;;;;;;19.20;99.90;;;;;;5098770;28;19931;-60
2022/09/14 14:30:49;;;;;;;;;;;19.10;99.90;;;;;;5110981;28;19924;-59
2022/09/14 14:33:18;;;;;;;;;;;19.00;99.90;;;;;;5110936;27;19931;-60
2022/09/14 14:35:46;;;;;;;;;;;19.00;99.90;;;;;;5110693;28;20383;-60
2022/09/14 14:38:13;;;;;;;;;;;19.00;99.90;;;;;;5111021;28;19951;-61
2022/09/14 14:40:41;;;;;;;;;;;18.90;99.90;;;;;;5094912;28;20396;-60
2022/09/14 14:43:13;;;;;;;;;;;18.90;99.90;;;;;;5092726;27;19947;-59
2022/09/14 14:45:40;;;;;;;;;;;18.90;99.90;;;;;;5110725;28;19931;-59